sensor_id;sensor_type;location;lat;lon;timestamp;temperature;humidity
37285;DHT22;23172;53.550;9.964;2023-08-21T00:03:52;23.70;79.60
37285;DHT22;23172;53.550;9.964;2023-08-21T00:08:53;23.70;80.00
37285;DHT22;23172;53.550;9.964;2023-08-21T00:13:57;23.60;80.80
37285;DHT22;23172;53.550;9.964;2023-08-21T00:18:59;23.60;81.60
37285;DHT22;23172;53.550;9.964;2023-08-21T00:24:00;23.50;83.10
37285;DHT22;23172;53.550;9.964;2023-08-21T00:29:04;23.50;82.70
37285;DHT22;23172;53.550;9.964;2023-08-21T00:34:06;23.50;83.20
37285;DHT22;23172;53.550;9.964;2023-08-21T00:39:08;23.50;84.20
37285;DHT22;23172;53.550;9.964;2023-08-21T00:44:11;23.50;85.20
37285;DHT22;23172;53.550;9.964;2023-08-21T00:49:13;23.50;85.40
37285;DHT22;23172;53.550;9.964;2023-08-21T00:54:15;23.50;86.80
37285;DHT22;23172;53.550;9.964;2023-08-21T00:59:18;23.50;86.20
37285;DHT22;23172;53.550;9.964;2023-08-21T01:04:20;23.40;86.50
37285;DHT22;23172;53.550;9.964;2023-08-21T01:09:27;23.30;86.60
37285;DHT22;23172;53.550;9.964;2023-08-21T01:14:39;23.30;86.50
37285;DHT22;23172;53.550;9.964;2023-08-21T01:19:43;23.20;86.60
37285;DHT22;23172;53.550;9.964;2023-08-21T01:24:46;23.20;87.20
37285;DHT22;23172;53.550;9.964;2023-08-21T01:29:48;23.20;87.20
37285;DHT22;23172;53.550;9.964;2023-08-21T01:34:51;23.20;87.60
37285;DHT22;23172;53.550;9.964;2023-08-21T01:39:58;23.20;88.10
37285;DHT22;23172;53.550;9.964;2023-08-21T01:44:59;23.10;88.70
37285;DHT22;23172;53.550;9.964;2023-08-21T01:50:01;23.00;89.70
37285;DHT22;23172;53.550;9.964;2023-08-21T01:55:06;23.00;90.30
37285;DHT22;23172;53.550;9.964;2023-08-21T02:00:09;23.00;90.50
37285;DHT22;23172;53.550;9.964;2023-08-21T02:05:11;23.00;90.50
37285;DHT22;23172;53.550;9.964;2023-08-21T02:10:15;22.90;90.80
37285;DHT22;23172;53.550;9.964;2023-08-21T02:15:16;22.80;91.20
37285;DHT22;23172;53.550;9.964;2023-08-21T02:20:18;22.80;91.40
37285;DHT22;23172;53.550;9.964;2023-08-21T02:25:21;22.70;91.60
37285;DHT22;23172;53.550;9.964;2023-08-21T02:30:23;22.70;92.00
37285;DHT22;23172;53.550;9.964;2023-08-21T02:35:25;22.60;92.10
37285;DHT22;23172;53.550;9.964;2023-08-21T02:40:29;22.60;92.20
37285;DHT22;23172;53.550;9.964;2023-08-21T02:45:31;22.60;92.30
37285;DHT22;23172;53.550;9.964;2023-08-21T02:50:32;22.50;92.20
37285;DHT22;23172;53.550;9.964;2023-08-21T02:55:36;22.40;92.20
37285;DHT22;23172;53.550;9.964;2023-08-21T03:00:38;22.50;92.20
37285;DHT22;23172;53.550;9.964;2023-08-21T03:05:40;22.40;92.00
37285;DHT22;23172;53.550;9.964;2023-08-21T03:10:43;22.40;91.60
37285;DHT22;23172;53.550;9.964;2023-08-21T03:15:45;22.40;91.40
37285;DHT22;23172;53.550;9.964;2023-08-21T03:20:47;22.40;91.10
37285;DHT22;23172;53.550;9.964;2023-08-21T03:25:52;22.40;90.80
37285;DHT22;23172;53.550;9.964;2023-08-21T03:30:53;22.40;90.50
37285;DHT22;23172;53.550;9.964;2023-08-21T03:35:55;22.40;90.50
37285;DHT22;23172;53.550;9.964;2023-08-21T03:40:58;22.30;90.30
37285;DHT22;23172;53.550;9.964;2023-08-21T03:46:00;22.30;90.40
37285;DHT22;23172;53.550;9.964;2023-08-21T03:51:02;22.30;90.30
37285;DHT22;23172;53.550;9.964;2023-08-21T03:56:05;22.30;90.20
37285;DHT22;23172;53.550;9.964;2023-08-21T04:01:08;22.20;90.20
37285;DHT22;23172;53.550;9.964;2023-08-21T04:06:10;22.20;90.30
37285;DHT22;23172;53.550;9.964;2023-08-21T04:11:13;22.20;90.30
37285;DHT22;23172;53.550;9.964;2023-08-21T04:16:16;22.20;90.40
37285;DHT22;23172;53.550;9.964;2023-08-21T04:21:19;22.20;90.60
37285;DHT22;23172;53.550;9.964;2023-08-21T04:26:22;22.20;90.80
37285;DHT22;23172;53.550;9.964;2023-08-21T04:31:24;22.20;91.00
37285;DHT22;23172;53.550;9.964;2023-08-21T04:36:26;22.30;91.40
37285;DHT22;23172;53.550;9.964;2023-08-21T04:41:29;22.40;90.80
37285;DHT22;23172;53.550;9.964;2023-08-21T04:46:31;22.30;90.80
37285;DHT22;23172;53.550;9.964;2023-08-21T04:51:32;22.40;90.50
37285;DHT22;23172;53.550;9.964;2023-08-21T04:56:36;22.50;90.00
37285;DHT22;23172;53.550;9.964;2023-08-21T05:01:37;22.50;89.90
37285;DHT22;23172;53.550;9.964;2023-08-21T05:06:39;22.60;90.10
37285;DHT22;23172;53.550;9.964;2023-08-21T05:11:42;22.50;90.40
37285;DHT22;23172;53.550;9.964;2023-08-21T05:16:44;22.50;90.50
37285;DHT22;23172;53.550;9.964;2023-08-21T05:21:46;22.60;90.40
37285;DHT22;23172;53.550;9.964;2023-08-21T05:26:49;22.60;90.30
37285;DHT22;23172;53.550;9.964;2023-08-21T05:31:51;22.60;90.20
37285;DHT22;23172;53.550;9.964;2023-08-21T05:36:53;22.60;90.50
37285;DHT22;23172;53.550;9.964;2023-08-21T05:41:56;22.60;90.20
37285;DHT22;23172;53.550;9.964;2023-08-21T05:46:59;22.60;90.40
37285;DHT22;23172;53.550;9.964;2023-08-21T05:52:01;22.70;90.30
37285;DHT22;23172;53.550;9.964;2023-08-21T05:57:04;22.70;90.20
37285;DHT22;23172;53.550;9.964;2023-08-21T06:02:06;22.70;90.20
37285;DHT22;23172;53.550;9.964;2023-08-21T06:07:08;22.80;90.20
37285;DHT22;23172;53.550;9.964;2023-08-21T06:12:11;22.90;90.10
37285;DHT22;23172;53.550;9.964;2023-08-21T06:17:13;22.90;90.00
37285;DHT22;23172;53.550;9.964;2023-08-21T06:22:15;22.90;89.40
37285;DHT22;23172;53.550;9.964;2023-08-21T06:27:18;22.90;89.30
37285;DHT22;23172;53.550;9.964;2023-08-21T06:32:20;23.00;89.40
37285;DHT22;23172;53.550;9.964;2023-08-21T06:37:22;23.00;89.30
37285;DHT22;23172;53.550;9.964;2023-08-21T06:42:25;23.10;89.60
37285;DHT22;23172;53.550;9.964;2023-08-21T06:47:29;23.30;87.70
37285;DHT22;23172;53.550;9.964;2023-08-21T06:52:30;23.40;86.90
37285;DHT22;23172;53.550;9.964;2023-08-21T06:57:34;23.40;86.20
37285;DHT22;23172;53.550;9.964;2023-08-21T07:02:37;23.50;84.20
37285;DHT22;23172;53.550;9.964;2023-08-21T07:07:39;23.50;84.10
37285;DHT22;23172;53.550;9.964;2023-08-21T07:12:42;23.70;83.30
37285;DHT22;23172;53.550;9.964;2023-08-21T07:17:44;23.70;81.00
37285;DHT22;23172;53.550;9.964;2023-08-21T07:22:45;23.70;79.20
37285;DHT22;23172;53.550;9.964;2023-08-21T07:27:48;23.70;77.20
37285;DHT22;23172;53.550;9.964;2023-08-21T07:32:52;23.80;76.20
37285;DHT22;23172;53.550;9.964;2023-08-21T07:37:54;23.90;75.30
37285;DHT22;23172;53.550;9.964;2023-08-21T07:42:57;24.00;73.90
37285;DHT22;23172;53.550;9.964;2023-08-21T07:47:59;24.10;74.00
37285;DHT22;23172;53.550;9.964;2023-08-21T07:53:01;24.30;73.10
37285;DHT22;23172;53.550;9.964;2023-08-21T07:58:04;24.50;72.30
37285;DHT22;23172;53.550;9.964;2023-08-21T08:03:06;24.70;72.60
37285;DHT22;23172;53.550;9.964;2023-08-21T08:08:08;24.90;72.40
37285;DHT22;23172;53.550;9.964;2023-08-21T08:13:11;24.50;73.60
37285;DHT22;23172;53.550;9.964;2023-08-21T08:18:13;24.40;73.50
37285;DHT22;23172;53.550;9.964;2023-08-21T08:23:15;24.30;73.40
37285;DHT22;23172;53.550;9.964;2023-08-21T08:28:18;24.60;73.90
37285;DHT22;23172;53.550;9.964;2023-08-21T08:33:23;25.80;73.50
37285;DHT22;23172;53.550;9.964;2023-08-21T08:38:25;29.10;66.20
37285;DHT22;23172;53.550;9.964;2023-08-21T08:43:29;29.20;59.70
37285;DHT22;23172;53.550;9.964;2023-08-21T08:48:32;31.20;58.70
37285;DHT22;23172;53.550;9.964;2023-08-21T08:53:34;36.40;49.70
37285;DHT22;23172;53.550;9.964;2023-08-21T08:58:37;40.40;43.00
37285;DHT22;23172;53.550;9.964;2023-08-21T09:03:40;43.90;37.80
37285;DHT22;23172;53.550;9.964;2023-08-21T09:08:53;45.90;33.40
37285;DHT22;23172;53.550;9.964;2023-08-21T09:13:56;47.70;28.20
37285;DHT22;23172;53.550;9.964;2023-08-21T09:18:58;48.50;27.90
37285;DHT22;23172;53.550;9.964;2023-08-21T11:05:23;49.80;26.40
37285;DHT22;23172;53.550;9.964;2023-08-21T11:10:24;43.90;25.10
37285;DHT22;23172;53.550;9.964;2023-08-21T11:15:31;40.60;26.40
37285;DHT22;23172;53.550;9.964;2023-08-21T11:20:34;37.50;29.90
37285;DHT22;23172;53.550;9.964;2023-08-21T11:25:39;35.50;31.20
37285;DHT22;23172;53.550;9.964;2023-08-21T11:30:44;34.00;33.60
37285;DHT22;23172;53.550;9.964;2023-08-21T11:35:47;33.00;35.40
37285;DHT22;23172;53.550;9.964;2023-08-21T11:40:55;32.20;37.70
37285;DHT22;23172;53.550;9.964;2023-08-21T11:46:01;31.40;39.20
37285;DHT22;23172;53.550;9.964;2023-08-21T11:51:03;31.00;39.50
37285;DHT22;23172;53.550;9.964;2023-08-21T11:56:09;30.90;40.40
37285;DHT22;23172;53.550;9.964;2023-08-21T12:01:17;30.90;40.10
37285;DHT22;23172;53.550;9.964;2023-08-21T12:06:19;30.50;40.10
37285;DHT22;23172;53.550;9.964;2023-08-21T12:11:21;30.10;40.70
37285;DHT22;23172;53.550;9.964;2023-08-21T12:16:25;29.80;41.80
37285;DHT22;23172;53.550;9.964;2023-08-21T12:21:27;29.90;41.30
37285;DHT22;23172;53.550;9.964;2023-08-21T12:26:28;30.10;41.70
37285;DHT22;23172;53.550;9.964;2023-08-21T12:31:32;30.40;41.80
37285;DHT22;23172;53.550;9.964;2023-08-21T12:36:34;30.70;42.00
37285;DHT22;23172;53.550;9.964;2023-08-21T12:41:37;30.40;40.80
37285;DHT22;23172;53.550;9.964;2023-08-21T12:46:40;30.40;40.60
37285;DHT22;23172;53.550;9.964;2023-08-21T12:51:42;30.30;41.30
37285;DHT22;23172;53.550;9.964;2023-08-21T12:56:44;30.60;40.90
37285;DHT22;23172;53.550;9.964;2023-08-21T13:01:47;30.80;40.90
37285;DHT22;23172;53.550;9.964;2023-08-21T13:06:49;31.00;40.80
37285;DHT22;23172;53.550;9.964;2023-08-21T13:11:51;31.10;40.40
37285;DHT22;23172;53.550;9.964;2023-08-21T13:16:54;31.20;39.10
37285;DHT22;23172;53.550;9.964;2023-08-21T13:21:56;31.30;38.40
37285;DHT22;23172;53.550;9.964;2023-08-21T13:26:58;31.60;37.80
37285;DHT22;23172;53.550;9.964;2023-08-21T13:32:01;31.70;37.50
37285;DHT22;23172;53.550;9.964;2023-08-21T13:37:04;31.80;36.80
37285;DHT22;23172;53.550;9.964;2023-08-21T13:42:06;32.30;36.60
37285;DHT22;23172;53.550;9.964;2023-08-21T13:47:09;32.40;36.00
37285;DHT22;23172;53.550;9.964;2023-08-21T13:52:12;32.40;35.50
37285;DHT22;23172;53.550;9.964;2023-08-21T13:57:14;32.10;34.80
37285;DHT22;23172;53.550;9.964;2023-08-21T14:02:17;32.00;34.50
37285;DHT22;23172;53.550;9.964;2023-08-21T14:07:19;32.10;34.10
37285;DHT22;23172;53.550;9.964;2023-08-21T14:12:21;32.30;34.00
37285;DHT22;23172;53.550;9.964;2023-08-21T14:17:24;32.30;34.10
37285;DHT22;23172;53.550;9.964;2023-08-21T14:22:26;32.20;34.50
37285;DHT22;23172;53.550;9.964;2023-08-21T14:27:28;32.30;34.50
37285;DHT22;23172;53.550;9.964;2023-08-21T14:32:31;32.10;34.10
37285;DHT22;23172;53.550;9.964;2023-08-21T14:37:33;32.10;34.00
37285;DHT22;23172;53.550;9.964;2023-08-21T14:42:35;32.00;34.00
37285;DHT22;23172;53.550;9.964;2023-08-21T14:47:38;32.00;33.60
37285;DHT22;23172;53.550;9.964;2023-08-21T14:52:40;31.90;33.80
37285;DHT22;23172;53.550;9.964;2023-08-21T14:57:42;31.80;34.20
37285;DHT22;23172;53.550;9.964;2023-08-21T15:02:47;31.80;34.00
37285;DHT22;23172;53.550;9.964;2023-08-21T15:07:49;31.70;33.80
37285;DHT22;23172;53.550;9.964;2023-08-21T15:12:51;31.50;33.70
37285;DHT22;23172;53.550;9.964;2023-08-21T15:17:55;31.50;34.00
37285;DHT22;23172;53.550;9.964;2023-08-21T15:22:56;31.30;34.40
37285;DHT22;23172;53.550;9.964;2023-08-21T15:27:58;31.30;34.40
37285;DHT22;23172;53.550;9.964;2023-08-21T15:33:02;31.10;34.00
37285;DHT22;23172;53.550;9.964;2023-08-21T15:38:04;30.60;34.20
37285;DHT22;23172;53.550;9.964;2023-08-21T15:43:07;30.30;34.70
37285;DHT22;23172;53.550;9.964;2023-08-21T15:48:10;29.90;35.00
37285;DHT22;23172;53.550;9.964;2023-08-21T15:53:12;29.60;35.60
37285;DHT22;23172;53.550;9.964;2023-08-21T15:58:14;29.40;36.10
37285;DHT22;23172;53.550;9.964;2023-08-21T16:03:18;29.00;36.60
37285;DHT22;23172;53.550;9.964;2023-08-21T16:08:20;28.70;37.30
37285;DHT22;23172;53.550;9.964;2023-08-21T16:13:21;28.60;37.30
37285;DHT22;23172;53.550;9.964;2023-08-21T16:18:25;28.40;37.40
37285;DHT22;23172;53.550;9.964;2023-08-21T16:23:27;28.30;37.50
37285;DHT22;23172;53.550;9.964;2023-08-21T16:28:29;28.20;37.70
37285;DHT22;23172;53.550;9.964;2023-08-21T16:33:32;28.20;37.80
37285;DHT22;23172;53.550;9.964;2023-08-21T16:38:36;28.10;38.00
37285;DHT22;23172;53.550;9.964;2023-08-21T16:43:38;28.00;38.20
37285;DHT22;23172;53.550;9.964;2023-08-21T16:48:41;27.80;38.10
37285;DHT22;23172;53.550;9.964;2023-08-21T16:53:43;27.70;38.10
37285;DHT22;23172;53.550;9.964;2023-08-21T16:58:45;27.60;38.00
37285;DHT22;23172;53.550;9.964;2023-08-21T17:03:48;27.50;38.40
37285;DHT22;23172;53.550;9.964;2023-08-21T17:08:50;27.40;38.50
37285;DHT22;23172;53.550;9.964;2023-08-21T17:13:52;27.30;38.80
37285;DHT22;23172;53.550;9.964;2023-08-21T17:18:55;27.20;38.90
37285;DHT22;23172;53.550;9.964;2023-08-21T17:23:57;27.10;38.90
37285;DHT22;23172;53.550;9.964;2023-08-21T17:28:59;27.10;39.10
37285;DHT22;23172;53.550;9.964;2023-08-21T17:34:02;27.00;39.20
37285;DHT22;23172;53.550;9.964;2023-08-21T17:39:04;26.90;39.50
37285;DHT22;23172;53.550;9.964;2023-08-21T17:44:06;26.90;39.90
37285;DHT22;23172;53.550;9.964;2023-08-21T17:49:09;26.80;40.10
37285;DHT22;23172;53.550;9.964;2023-08-21T17:54:11;26.80;40.40
37285;DHT22;23172;53.550;9.964;2023-08-21T17:59:13;26.80;40.70
37285;DHT22;23172;53.550;9.964;2023-08-21T18:04:16;26.70;40.90
37285;DHT22;23172;53.550;9.964;2023-08-21T18:09:18;26.70;40.90
37285;DHT22;23172;53.550;9.964;2023-08-21T18:14:20;26.60;41.00
37285;DHT22;23172;53.550;9.964;2023-08-21T18:19:23;26.60;41.10
37285;DHT22;23172;53.550;9.964;2023-08-21T18:24:25;26.50;41.30
37285;DHT22;23172;53.550;9.964;2023-08-21T18:29:27;26.40;41.50
37285;DHT22;23172;53.550;9.964;2023-08-21T18:34:30;26.40;41.90
37285;DHT22;23172;53.550;9.964;2023-08-21T18:39:32;26.30;42.20
37285;DHT22;23172;53.550;9.964;2023-08-21T18:44:34;26.20;42.80
37285;DHT22;23172;53.550;9.964;2023-08-21T18:49:37;26.20;43.30
37285;DHT22;23172;53.550;9.964;2023-08-21T18:54:39;26.10;43.70
37285;DHT22;23172;53.550;9.964;2023-08-21T18:59:41;26.00;44.20
37285;DHT22;23172;53.550;9.964;2023-08-21T19:04:44;26.00;44.50
37285;DHT22;23172;53.550;9.964;2023-08-21T19:09:46;25.90;44.90
37285;DHT22;23172;53.550;9.964;2023-08-21T19:14:48;25.80;45.40
37285;DHT22;23172;53.550;9.964;2023-08-21T19:19:52;25.80;45.80
37285;DHT22;23172;53.550;9.964;2023-08-21T19:24:54;25.70;46.00
37285;DHT22;23172;53.550;9.964;2023-08-21T19:29:56;25.70;47.00
37285;DHT22;23172;53.550;9.964;2023-08-21T19:34:59;25.60;46.80
37285;DHT22;23172;53.550;9.964;2023-08-21T19:40:01;25.50;47.30
37285;DHT22;23172;53.550;9.964;2023-08-21T19:45:06;25.40;47.70
37285;DHT22;23172;53.550;9.964;2023-08-21T19:50:10;25.40;47.90
37285;DHT22;23172;53.550;9.964;2023-08-21T19:55:12;25.40;48.30
37285;DHT22;23172;53.550;9.964;2023-08-21T20:00:14;25.40;49.20
37285;DHT22;23172;53.550;9.964;2023-08-21T20:05:18;25.30;48.90
37285;DHT22;23172;53.550;9.964;2023-08-21T20:10:19;25.20;49.20
37285;DHT22;23172;53.550;9.964;2023-08-21T20:15:21;25.10;49.40
37285;DHT22;23172;53.550;9.964;2023-08-21T20:20:24;25.10;49.60
37285;DHT22;23172;53.550;9.964;2023-08-21T20:25:26;25.10;50.00
37285;DHT22;23172;53.550;9.964;2023-08-21T20:30:28;25.00;50.30
37285;DHT22;23172;53.550;9.964;2023-08-21T20:35:31;24.90;50.60
37285;DHT22;23172;53.550;9.964;2023-08-21T20:40:33;24.90;50.90
37285;DHT22;23172;53.550;9.964;2023-08-21T20:45:35;24.80;51.20
37285;DHT22;23172;53.550;9.964;2023-08-21T20:50:39;24.80;51.40
37285;DHT22;23172;53.550;9.964;2023-08-21T20:55:40;24.80;51.60
37285;DHT22;23172;53.550;9.964;2023-08-21T21:00:42;24.70;51.80
37285;DHT22;23172;53.550;9.964;2023-08-21T21:05:45;24.60;51.90
37285;DHT22;23172;53.550;9.964;2023-08-21T21:10:47;24.60;52.20
37285;DHT22;23172;53.550;9.964;2023-08-21T21:15:49;24.60;52.40
37285;DHT22;23172;53.550;9.964;2023-08-21T21:20:54;24.50;52.40
37285;DHT22;23172;53.550;9.964;2023-08-21T21:25:59;24.50;52.40
37285;DHT22;23172;53.550;9.964;2023-08-21T21:31:01;24.40;52.40
37285;DHT22;23172;53.550;9.964;2023-08-21T21:36:04;24.40;52.50
37285;DHT22;23172;53.550;9.964;2023-08-21T21:41:06;24.40;52.70
37285;DHT22;23172;53.550;9.964;2023-08-21T21:46:09;24.30;52.90
37285;DHT22;23172;53.550;9.964;2023-08-21T21:51:12;24.30;53.00
37285;DHT22;23172;53.550;9.964;2023-08-21T21:56:14;24.30;53.30
37285;DHT22;23172;53.550;9.964;2023-08-21T22:01:16;24.20;53.40
37285;DHT22;23172;53.550;9.964;2023-08-21T22:06:20;24.10;53.40
37285;DHT22;23172;53.550;9.964;2023-08-21T22:11:21;24.00;53.60
37285;DHT22;23172;53.550;9.964;2023-08-21T22:16:24;24.00;53.60
37285;DHT22;23172;53.550;9.964;2023-08-21T22:21:27;23.90;53.40
37285;DHT22;23172;53.550;9.964;2023-08-21T22:26:31;23.80;54.20
37285;DHT22;23172;53.550;9.964;2023-08-21T22:31:32;23.70;54.60
37285;DHT22;23172;53.550;9.964;2023-08-21T22:36:36;23.60;55.00
37285;DHT22;23172;53.550;9.964;2023-08-21T22:41:37;23.50;55.30
37285;DHT22;23172;53.550;9.964;2023-08-21T22:46:39;23.50;55.30
37285;DHT22;23172;53.550;9.964;2023-08-21T22:51:44;23.40;55.30
37285;DHT22;23172;53.550;9.964;2023-08-21T22:56:46;23.30;55.30
37285;DHT22;23172;53.550;9.964;2023-08-21T23:01:48;23.20;55.50
37285;DHT22;23172;53.550;9.964;2023-08-21T23:06:51;23.10;55.60
37285;DHT22;23172;53.550;9.964;2023-08-21T23:11:53;23.10;56.20
37285;DHT22;23172;53.550;9.964;2023-08-21T23:16:55;23.00;55.60
37285;DHT22;23172;53.550;9.964;2023-08-21T23:21:58;22.90;55.90
37285;DHT22;23172;53.550;9.964;2023-08-21T23:27:00;22.90;56.10
37285;DHT22;23172;53.550;9.964;2023-08-21T23:32:06;22.80;56.30
37285;DHT22;23172;53.550;9.964;2023-08-21T23:37:09;22.80;56.40
37285;DHT22;23172;53.550;9.964;2023-08-21T23:42:11;22.70;56.50
37285;DHT22;23172;53.550;9.964;2023-08-21T23:47:13;22.60;56.40
37285;DHT22;23172;53.550;9.964;2023-08-21T23:52:16;22.60;56.60
37285;DHT22;23172;53.550;9.964;2023-08-21T23:57:18;22.60;56.60
